Abertridwr, United Kingdom
Current Conditions -  °F | °C
As of 1:50 AM on Monday 22 Dec 2014 (Local Time) from EGFF Reporting Station
Overcast Overcast  
Wind Chill: 52°   Ceiling: 200
Heat Index: 52°   Visibility: 4mi
Dew Point: 52°   Wind: 18mph
Humidity: 100%   Direction: 260°W
Pressure: 30.12"   Gusts: NA
Location:  51.6°N, 3.27°W
Report Text: EGFF 220150Z AUTO 26016KT 7000 OVC002 11/11 Q1020
Loading
Personal Weather Stations






























Interactive Weather Map New forecast layout! Learn more

10-Day Weather Forecast

Advertisements
Track Severe Weather on mobile